createdAt,value
2022-12-17T00:02:02.300Z,-4.82
2022-12-17T00:04:22.175Z,-4.87
2022-12-17T00:06:42.243Z,-4.91
2022-12-17T00:09:02.044Z,-4.94
2022-12-17T00:11:21.999Z,-4.95
2022-12-17T00:13:41.953Z,-4.98
2022-12-17T00:16:02.028Z,-5.01
2022-12-17T00:18:26.302Z,-5.04
2022-12-17T00:20:46.245Z,-5.09
2022-12-17T00:23:06.008Z,-5.12
2022-12-17T00:25:26.301Z,-5.15
2022-12-17T00:27:46.210Z,-5.17
2022-12-17T00:30:06.161Z,-5.20
2022-12-17T00:32:28.119Z,-5.23
2022-12-17T00:34:47.958Z,-5.24
2022-12-17T00:37:22.423Z,-5.25
2022-12-17T00:39:42.315Z,-5.27
2022-12-17T00:42:02.270Z,-5.29
2022-12-17T00:44:22.618Z,-5.43
2022-12-17T00:46:42.586Z,-5.54
2022-12-17T00:49:03.356Z,-5.55
2022-12-17T00:51:23.881Z,-5.53
2022-12-17T00:53:43.699Z,-5.51
2022-12-17T00:56:03.627Z,-5.53
2022-12-17T00:58:23.536Z,-5.55
2022-12-17T01:00:43.418Z,-5.57
2022-12-17T01:03:03.573Z,-5.61
2022-12-17T01:05:24.665Z,-5.63
2022-12-17T01:07:44.420Z,-5.66
2022-12-17T01:10:04.377Z,-5.69
2022-12-17T01:12:24.727Z,-5.72
2022-12-17T01:14:44.993Z,-5.73
2022-12-17T01:17:05.272Z,-5.73
2022-12-17T01:19:25.043Z,-5.76
2022-12-17T01:21:44.789Z,-5.75
2022-12-17T01:24:04.592Z,-5.75
2022-12-17T01:26:24.796Z,-5.78
2022-12-17T01:28:45.045Z,-5.81
2022-12-17T01:31:04.958Z,-5.84
2022-12-17T01:33:27.771Z,-5.85
2022-12-17T01:35:47.601Z,-5.86
2022-12-17T01:38:07.537Z,-5.89
2022-12-17T01:40:28.166Z,-5.90
2022-12-17T01:42:59.585Z,-5.92
2022-12-17T01:45:21.340Z,-5.95
2022-12-17T01:47:41.870Z,-5.98
2022-12-17T01:50:01.690Z,-6.00
2022-12-17T01:52:22.008Z,-6.04
2022-12-17T01:54:42.547Z,-6.07
2022-12-17T01:57:03.013Z,-6.09
2022-12-17T01:59:25.547Z,-6.11
2022-12-17T02:01:46.017Z,-6.13
2022-12-17T02:04:06.180Z,-6.18
2022-12-17T02:06:32.136Z,-6.20
2022-12-17T02:09:19.749Z,-6.24
2022-12-17T02:12:21.679Z,-6.28
2022-12-17T02:15:07.444Z,-6.30
2022-12-17T02:17:32.702Z,-6.32
2022-12-17T02:20:06.042Z,-6.33
2022-12-17T02:22:38.618Z,-6.34
2022-12-17T02:25:11.133Z,-6.35
2022-12-17T02:27:32.471Z,-6.38
2022-12-17T02:30:02.964Z,-6.41
2022-12-17T02:32:24.883Z,-6.42
2022-12-17T02:34:44.649Z,-6.43
2022-12-17T02:37:04.430Z,-6.45
2022-12-17T02:39:24.132Z,-6.46
2022-12-17T02:41:52.559Z,-6.47
2022-12-17T02:44:14.940Z,-6.48
2022-12-17T02:46:36.182Z,-6.50
2022-12-17T02:48:56.486Z,-6.53
2022-12-17T02:51:17.768Z,-6.55
2022-12-17T02:53:46.085Z,-6.57
2022-12-17T02:56:06.522Z,-6.57
2022-12-17T02:58:26.471Z,-6.59
2022-12-17T03:00:46.281Z,-6.61
2022-12-17T03:03:06.193Z,-6.63
2022-12-17T03:05:44.649Z,-6.65
2022-12-17T03:08:05.332Z,-6.68
2022-12-17T03:10:25.654Z,-6.68
2022-12-17T03:12:45.561Z,-6.71
2022-12-17T03:15:05.478Z,-6.71
2022-12-17T03:17:25.221Z,-6.74
2022-12-17T03:19:44.979Z,-6.76
2022-12-17T03:22:05.715Z,-6.78
2022-12-17T03:24:26.046Z,-6.79
2022-12-17T03:26:45.915Z,-6.79
2022-12-17T03:29:06.229Z,-6.81
2022-12-17T03:31:26.083Z,-6.84
2022-12-17T03:33:49.120Z,-6.85
2022-12-17T03:36:11.945Z,-6.85
2022-12-17T03:38:32.336Z,-6.87
2022-12-17T03:40:52.115Z,-6.88
2022-12-17T03:43:11.974Z,-6.91
2022-12-17T03:45:31.710Z,-6.94
2022-12-17T03:48:05.332Z,-6.95
2022-12-17T03:50:26.158Z,-6.95
2022-12-17T03:52:45.872Z,-6.96
2022-12-17T03:55:05.697Z,-6.96
2022-12-17T03:57:25.502Z,-6.98
2022-12-17T03:59:45.463Z,-7.01
2022-12-17T04:02:05.446Z,-7.03
2022-12-17T04:04:25.690Z,-7.04
2022-12-17T04:06:45.566Z,-7.03
2022-12-17T04:09:05.366Z,-7.07
2022-12-17T04:11:25.766Z,-7.09
2022-12-17T04:13:45.904Z,-7.13
2022-12-17T04:16:06.566Z,-7.13
2022-12-17T04:18:26.689Z,-7.14
2022-12-17T04:20:46.498Z,-7.16
2022-12-17T04:23:06.381Z,-7.17
2022-12-17T04:25:26.813Z,-7.19
2022-12-17T04:27:46.616Z,-7.21
2022-12-17T04:30:06.519Z,-7.24
2022-12-17T04:32:28.225Z,-7.27
2022-12-17T04:34:50.094Z,-7.31
2022-12-17T04:37:10.221Z,-7.27
2022-12-17T04:39:30.175Z,-7.20
2022-12-17T04:41:50.568Z,-7.18
2022-12-17T04:44:10.379Z,-7.16
2022-12-17T04:46:30.518Z,-7.13
2022-12-17T04:48:50.748Z,-7.07
2022-12-17T04:51:11.695Z,-7.02
2022-12-17T04:53:31.662Z,-6.98
2022-12-17T04:55:51.733Z,-6.97
2022-12-17T04:58:11.507Z,-6.99
2022-12-17T05:00:32.248Z,-6.99
2022-12-17T05:02:52.154Z,-7.00
2022-12-17T05:05:12.136Z,-7.01
2022-12-17T05:07:31.901Z,-7.01
2022-12-17T05:09:51.664Z,-7.00
2022-12-17T05:12:11.400Z,-6.99
2022-12-17T05:14:34.637Z,-6.97
2022-12-17T05:16:54.956Z,-6.90
2022-12-17T05:19:14.799Z,-6.86
2022-12-17T05:21:35.026Z,-6.82
2022-12-17T05:23:54.747Z,-6.79
2022-12-17T05:26:32.405Z,-6.78
2022-12-17T05:28:52.154Z,-6.78
2022-12-17T05:31:13.606Z,-6.77
2022-12-17T05:33:34.051Z,-6.78
2022-12-17T05:35:54.143Z,-6.76
2022-12-17T05:38:13.896Z,-6.76
2022-12-17T05:40:34.241Z,-6.78
2022-12-17T05:42:54.039Z,-6.76
2022-12-17T05:45:13.832Z,-6.77
2022-12-17T05:47:33.699Z,-6.75
2022-12-17T05:49:53.496Z,-6.68
2022-12-17T05:52:16.822Z,-6.66
2022-12-17T05:54:36.616Z,-6.67
2022-12-17T05:56:56.950Z,-6.70
2022-12-17T05:59:17.275Z,-6.69
2022-12-17T06:01:37.176Z,-6.66
2022-12-17T06:03:57.368Z,-6.59
2022-12-17T06:06:17.602Z,-6.56
2022-12-17T06:08:37.460Z,-6.56
2022-12-17T06:10:57.449Z,-6.52
2022-12-17T06:13:17.320Z,-6.50
2022-12-17T06:15:37.290Z,-6.47
2022-12-17T06:17:57.316Z,-6.47
2022-12-17T06:20:17.268Z,-6.46
2022-12-17T06:22:37.235Z,-6.48
2022-12-17T06:24:57.117Z,-6.49
2022-12-17T06:27:17.445Z,-6.49
2022-12-17T06:29:37.319Z,-6.51
2022-12-17T06:31:57.215Z,-6.48
2022-12-17T06:34:17.355Z,-6.50
2022-12-17T06:36:37.124Z,-6.51
2022-12-17T06:38:56.804Z,-6.50
2022-12-17T06:41:19.637Z,-6.49
2022-12-17T06:43:39.531Z,-6.48
2022-12-17T06:46:00.375Z,-6.46
2022-12-17T06:48:25.473Z,-6.51
2022-12-17T06:50:45.419Z,-6.48
2022-12-17T06:53:05.416Z,-6.44
2022-12-17T06:55:25.684Z,-6.43
2022-12-17T06:57:50.379Z,-6.43
2022-12-17T07:00:10.838Z,-6.48
2022-12-17T07:02:31.257Z,-6.51
2022-12-17T07:04:51.085Z,-6.47
2022-12-17T07:07:10.898Z,-6.49
2022-12-17T07:09:31.047Z,-6.49
2022-12-17T07:11:50.942Z,-6.50
2022-12-17T07:14:10.918Z,-6.50
2022-12-17T07:16:30.737Z,-6.48
2022-12-17T07:18:51.065Z,-6.47
2022-12-17T07:21:12.567Z,-6.49
2022-12-17T07:23:32.731Z,-6.50
2022-12-17T07:25:52.699Z,-6.46
2022-12-17T07:28:15.331Z,-6.44
2022-12-17T07:30:35.630Z,-6.45
2022-12-17T07:32:55.416Z,-6.43
2022-12-17T07:35:15.677Z,-6.42
2022-12-17T07:37:37.115Z,-6.39
2022-12-17T07:39:57.210Z,-6.35
2022-12-17T07:42:17.019Z,-6.33
2022-12-17T07:44:37.241Z,-6.34
2022-12-17T07:46:57.039Z,-6.34
2022-12-17T07:49:19.213Z,-6.31
2022-12-17T07:51:42.842Z,-6.27
2022-12-17T07:54:02.542Z,-6.26
2022-12-17T07:56:22.988Z,-6.22
2022-12-17T07:58:42.868Z,-6.19
2022-12-17T08:01:06.373Z,-6.17
2022-12-17T08:03:26.708Z,-6.17
2022-12-17T08:05:46.883Z,-6.13
2022-12-17T08:08:07.193Z,-6.13
2022-12-17T08:10:27.380Z,-6.13
2022-12-17T08:12:47.235Z,-6.10
2022-12-17T08:15:07.697Z,-6.13
2022-12-17T08:17:27.472Z,-6.12
2022-12-17T08:19:47.764Z,-6.09
2022-12-17T08:22:08.031Z,-6.04
2022-12-17T08:24:27.836Z,-6.03
2022-12-17T08:26:48.513Z,-6.05
2022-12-17T08:29:08.731Z,-6.05
2022-12-17T08:31:29.124Z,-5.98
2022-12-17T08:33:49.078Z,-5.91
2022-12-17T08:36:12.889Z,-5.85
2022-12-17T08:38:33.136Z,-5.90
2022-12-17T08:40:53.076Z,-5.90
2022-12-17T08:43:16.697Z,-5.87
2022-12-17T08:45:36.615Z,-5.87
2022-12-17T08:48:00.595Z,-5.84
2022-12-17T08:50:24.811Z,-5.78
2022-12-17T08:52:44.719Z,-5.77
2022-12-17T08:55:04.493Z,-5.75
2022-12-17T08:57:31.354Z,-5.78
2022-12-17T08:59:52.172Z,-5.76
2022-12-17T09:02:12.059Z,-5.73
2022-12-17T09:04:32.485Z,-5.71
2022-12-17T09:06:52.174Z,-5.68
2022-12-17T09:09:12.229Z,-5.68
2022-12-17T09:11:32.909Z,-5.67
2022-12-17T09:13:53.484Z,-5.68
2022-12-17T09:16:14.229Z,-5.67
2022-12-17T09:18:37.964Z,-5.63
2022-12-17T09:20:58.357Z,-5.62
2022-12-17T09:23:18.620Z,-5.59
2022-12-17T09:25:38.612Z,-5.57
2022-12-17T09:27:59.089Z,-5.56
2022-12-17T09:30:18.762Z,-5.50
2022-12-17T09:32:38.662Z,-5.48
2022-12-17T09:34:58.631Z,-5.44
2022-12-17T09:37:18.641Z,-5.45
2022-12-17T09:39:38.675Z,-5.46
2022-12-17T09:42:09.685Z,-5.46
2022-12-17T09:44:48.075Z,-5.42
2022-12-17T09:47:21.560Z,-5.39
2022-12-17T09:49:47.252Z,-5.31
2022-12-17T09:52:07.308Z,-5.30
2022-12-17T09:55:00.960Z,-5.22
2022-12-17T09:57:21.737Z,-5.17
2022-12-17T09:59:52.639Z,-5.14
2022-12-17T10:02:12.643Z,-5.14
2022-12-17T10:04:54.295Z,-5.13
2022-12-17T10:07:18.553Z,-5.12
2022-12-17T10:09:52.598Z,-5.07
2022-12-17T10:12:12.871Z,-5.10
2022-12-17T10:14:42.137Z,-5.08
2022-12-17T10:17:11.393Z,-5.00
2022-12-17T10:19:49.178Z,-4.89
2022-12-17T10:22:10.913Z,-4.80
2022-12-17T10:24:31.382Z,-4.79
2022-12-17T10:26:52.856Z,-4.77
2022-12-17T10:29:33.704Z,-4.73
2022-12-17T10:31:53.505Z,-4.68
2022-12-17T10:34:15.838Z,-4.60
2022-12-17T10:36:40.194Z,-4.56
2022-12-17T10:39:00.194Z,-4.58
2022-12-17T10:41:23.051Z,-4.54
2022-12-17T10:43:47.703Z,-4.47
2022-12-17T10:46:15.845Z,-4.45
2022-12-17T10:48:36.601Z,-4.42
2022-12-17T10:50:59.831Z,-4.39
2022-12-17T10:53:21.329Z,-4.30
2022-12-17T10:55:47.330Z,-4.28
2022-12-17T10:58:10.538Z,-4.26
2022-12-17T11:00:36.429Z,-4.22
2022-12-17T11:02:56.708Z,-4.18
2022-12-17T11:05:17.113Z,-4.16
2022-12-17T11:07:45.798Z,-4.15
2022-12-17T11:10:10.211Z,-4.10
2022-12-17T11:12:33.906Z,-3.92
2022-12-17T11:15:03.449Z,-3.71
2022-12-17T11:17:29.217Z,-3.64
2022-12-17T11:20:24.279Z,-3.65
2022-12-17T11:23:01.111Z,-3.60
2022-12-17T11:25:26.500Z,-3.59
2022-12-17T11:27:51.742Z,-3.63
2022-12-17T11:30:12.107Z,-3.66
2022-12-17T11:32:58.394Z,-3.60
2022-12-17T11:35:40.244Z,-3.59
2022-12-17T11:38:11.379Z,-3.59
2022-12-17T11:40:31.326Z,-3.61
2022-12-17T11:42:58.543Z,-3.63
2022-12-17T11:45:35.120Z,-3.55
2022-12-17T11:48:27.653Z,-3.56
2022-12-17T11:51:01.933Z,-3.60
2022-12-17T11:53:44.758Z,-3.56
2022-12-17T11:56:16.742Z,-3.55
2022-12-17T11:58:46.419Z,-3.52
2022-12-17T12:01:35.559Z,-3.49
2022-12-17T12:04:28.102Z,-3.48
2022-12-17T12:07:04.003Z,-3.46
2022-12-17T12:09:27.059Z,-3.46
2022-12-17T12:11:53.980Z,-3.50
2022-12-17T12:14:28.114Z,-3.54
2022-12-17T12:17:03.587Z,-3.61
2022-12-17T12:19:47.308Z,-3.66
2022-12-17T12:22:09.996Z,-3.69
2022-12-17T12:24:56.194Z,-3.69
2022-12-17T12:27:42.620Z,-3.77
2022-12-17T12:30:20.655Z,-3.80
2022-12-17T12:32:53.484Z,-3.80
2022-12-17T12:35:16.425Z,-3.83
2022-12-17T12:37:39.426Z,-3.86
2022-12-17T12:40:10.353Z,-3.91
2022-12-17T12:42:41.172Z,-3.97
2022-12-17T12:45:10.289Z,-3.94
2022-12-17T12:47:41.637Z,-3.90
2022-12-17T12:50:13.480Z,-3.90
2022-12-17T12:52:39.237Z,-3.92
2022-12-17T12:55:05.369Z,-3.96
2022-12-17T12:57:45.690Z,-3.90
2022-12-17T13:00:08.004Z,-3.93
2022-12-17T13:02:45.563Z,-3.96
2022-12-17T13:05:12.860Z,-3.98
2022-12-17T13:07:40.512Z,-4.03
2022-12-17T13:09:50.899Z,-4.04
2022-12-17T13:12:04.580Z,-4.01
2022-12-17T13:14:15.513Z,-4.06
2022-12-17T13:16:52.272Z,-4.03
2022-12-17T13:19:17.386Z,-4.01
2022-12-17T13:21:18.765Z,-4.01
2022-12-17T13:23:28.735Z,-3.96
2022-12-17T13:25:30.379Z,-3.94
2022-12-17T13:27:41.831Z,-3.90
2022-12-17T13:29:43.358Z,-3.90
2022-12-17T13:32:18.023Z,-3.90
2022-12-17T13:34:42.987Z,-3.91
2022-12-17T13:37:26.345Z,-3.91
2022-12-17T13:39:48.707Z,-3.86
2022-12-17T13:41:54.873Z,-3.81
2022-12-17T13:43:59.428Z,-3.75
2022-12-17T13:46:00.977Z,-3.73
2022-12-17T13:48:02.615Z,-3.73
2022-12-17T13:50:36.642Z,-3.81
2022-12-17T13:52:38.442Z,-3.88
2022-12-17T13:54:39.982Z,-3.88
2022-12-17T13:56:41.600Z,-3.88
2022-12-17T13:58:43.183Z,-3.91
2022-12-17T14:00:44.669Z,-3.90
2022-12-17T14:02:46.320Z,-3.90
2022-12-17T14:04:52.946Z,-3.88
2022-12-17T14:06:57.939Z,-3.88
2022-12-17T14:08:59.835Z,-3.84
2022-12-17T14:11:20.867Z,-3.88
2022-12-17T14:13:22.365Z,-3.86
2022-12-17T14:15:26.625Z,-3.79
2022-12-17T14:17:49.558Z,-3.84
2022-12-17T14:20:04.099Z,-3.86
2022-12-17T14:22:05.847Z,-3.86
2022-12-17T14:24:11.032Z,-3.87
2022-12-17T14:26:13.390Z,-3.89
2022-12-17T14:28:24.986Z,-3.92
2022-12-17T14:31:02.520Z,-3.92
2022-12-17T14:33:01.419Z,-3.92
2022-12-17T14:35:03.986Z,-3.95
2022-12-17T14:37:05.556Z,-3.99
2022-12-17T14:39:28.851Z,-4.02
2022-12-17T14:41:56.491Z,-4.06
2022-12-17T14:43:59.750Z,-4.07
2022-12-17T14:46:20.054Z,-4.07
2022-12-17T14:48:45.587Z,-4.03
2022-12-17T14:50:55.074Z,-3.98
2022-12-17T14:52:58.879Z,-3.96
2022-12-17T14:55:00.397Z,-3.94
2022-12-17T14:57:05.608Z,-3.97
2022-12-17T14:59:30.513Z,-3.98
2022-12-17T15:01:32.294Z,-4.02
2022-12-17T15:03:39.040Z,-4.01
2022-12-17T15:05:40.582Z,-4.03
2022-12-17T15:07:42.538Z,-4.03
2022-12-17T15:09:44.194Z,-4.00
2022-12-17T15:11:45.671Z,-3.94
2022-12-17T15:13:50.318Z,-3.90
2022-12-17T15:15:55.981Z,-3.91
2022-12-17T15:17:59.227Z,-3.94
2022-12-17T15:20:00.761Z,-3.99
2022-12-17T15:22:03.490Z,-4.08
2022-12-17T15:24:06.884Z,-4.14
2022-12-17T15:26:10.065Z,-4.15
2022-12-17T15:28:12.207Z,-4.07
2022-12-17T15:30:16.339Z,-4.05
2022-12-17T15:32:20.029Z,-4.07
2022-12-17T15:34:21.811Z,-4.07
2022-12-17T15:36:23.378Z,-4.06
2022-12-17T15:38:24.862Z,-4.09
2022-12-17T15:40:26.309Z,-4.14
2022-12-17T15:42:46.608Z,-4.17
2022-12-17T15:44:48.042Z,-4.16
2022-12-17T15:46:49.724Z,-4.16
2022-12-17T15:48:51.397Z,-4.22
2022-12-17T15:50:52.873Z,-4.22
2022-12-17T15:52:54.318Z,-4.22
2022-12-17T15:54:55.754Z,-4.23
2022-12-17T15:56:58.184Z,-4.21
2022-12-17T15:58:59.659Z,-4.29
2022-12-17T16:01:01.175Z,-4.33
2022-12-17T16:03:02.819Z,-4.37
2022-12-17T16:05:05.089Z,-4.34
2022-12-17T16:07:06.581Z,-4.31
2022-12-17T16:09:08.323Z,-4.33
2022-12-17T16:11:11.917Z,-4.35
2022-12-17T16:13:13.417Z,-4.38
2022-12-17T16:15:15.100Z,-4.44
2022-12-17T16:17:16.628Z,-4.47
2022-12-17T16:19:18.501Z,-4.51
2022-12-17T16:21:20.001Z,-4.48
2022-12-17T16:23:21.442Z,-4.53
2022-12-17T16:25:22.901Z,-4.55
2022-12-17T16:27:24.354Z,-4.58
2022-12-17T16:29:25.805Z,-4.59
2022-12-17T16:31:27.277Z,-4.57
2022-12-17T16:33:36.927Z,-4.55
2022-12-17T16:35:38.366Z,-4.51
2022-12-17T16:37:39.797Z,-4.53
2022-12-17T16:39:41.286Z,-4.55
2022-12-17T16:41:42.848Z,-4.54
2022-12-17T16:43:44.814Z,-4.56
2022-12-17T16:45:48.839Z,-4.58
2022-12-17T16:47:50.702Z,-4.59
2022-12-17T16:49:52.169Z,-4.59
2022-12-17T16:51:54.875Z,-4.60
2022-12-17T16:53:57.646Z,-4.56
2022-12-17T16:55:59.070Z,-4.60
2022-12-17T16:58:00.505Z,-4.68
2022-12-17T17:00:02.039Z,-4.72
2022-12-17T17:02:03.624Z,-4.70
2022-12-17T17:04:07.938Z,-4.73
2022-12-17T17:06:10.292Z,-4.76
2022-12-17T17:08:11.732Z,-4.78
2022-12-17T17:10:13.277Z,-4.80
2022-12-17T17:12:14.791Z,-4.84
2022-12-17T17:14:16.681Z,-4.90
2022-12-17T17:16:20.443Z,-4.87
2022-12-17T17:18:24.790Z,-4.94
2022-12-17T17:20:26.499Z,-4.99
2022-12-17T17:22:27.913Z,-4.97
2022-12-17T17:24:29.531Z,-5.03
2022-12-17T17:26:32.920Z,-5.03
2022-12-17T17:28:34.582Z,-4.99
2022-12-17T17:30:36.125Z,-5.02
2022-12-17T17:32:37.629Z,-5.08
2022-12-17T17:34:39.697Z,-5.07
2022-12-17T17:36:41.972Z,-5.05
2022-12-17T17:38:43.528Z,-5.01
2022-12-17T17:40:44.961Z,-5.04
2022-12-17T17:42:51.532Z,-5.11
2022-12-17T17:44:53.401Z,-5.17
2022-12-17T17:46:54.886Z,-5.23
2022-12-17T17:49:01.321Z,-5.31
2022-12-17T17:51:08.919Z,-5.33
2022-12-17T17:53:10.435Z,-5.31
2022-12-17T17:55:11.892Z,-5.31
2022-12-17T17:57:13.430Z,-5.35
2022-12-17T17:59:19.980Z,-5.44
2022-12-17T18:01:33.059Z,-5.45
2022-12-17T18:03:34.728Z,-5.47
2022-12-17T18:05:41.805Z,-5.40
2022-12-17T18:07:43.385Z,-5.37
2022-12-17T18:09:44.810Z,-5.37
2022-12-17T18:11:46.523Z,-5.35
2022-12-17T18:13:57.004Z,-5.34
2022-12-17T18:16:01.885Z,-5.41
2022-12-17T18:18:03.473Z,-5.44
2022-12-17T18:20:05.573Z,-5.51
2022-12-17T18:22:07.007Z,-5.57
2022-12-17T18:24:15.021Z,-5.61
2022-12-17T18:26:21.064Z,-5.65
2022-12-17T18:28:22.485Z,-5.64
2022-12-17T18:30:23.979Z,-5.59
2022-12-17T18:32:25.705Z,-5.57
2022-12-17T18:34:27.757Z,-5.57
2022-12-17T18:36:32.185Z,-5.56
2022-12-17T18:38:33.656Z,-5.57
2022-12-17T18:40:36.158Z,-5.57
2022-12-17T18:42:56.000Z,-5.58
2022-12-17T18:44:57.456Z,-5.60
2022-12-17T18:46:59.227Z,-5.64
2022-12-17T18:49:03.920Z,-5.67
2022-12-17T18:51:05.971Z,-5.71
2022-12-17T18:53:07.423Z,-5.74
2022-12-17T18:55:11.788Z,-5.75
2022-12-17T18:57:13.517Z,-5.77
2022-12-17T18:59:17.287Z,-5.79
2022-12-17T19:01:30.395Z,-5.80
2022-12-17T19:03:32.681Z,-5.83
2022-12-17T19:05:34.130Z,-5.86
2022-12-17T19:07:35.622Z,-5.89
2022-12-17T19:09:39.333Z,-5.92
2022-12-17T19:11:43.679Z,-5.94
2022-12-17T19:13:46.126Z,-5.96
2022-12-17T19:15:47.582Z,-5.99
2022-12-17T19:17:50.883Z,-6.00
2022-12-17T19:19:52.310Z,-6.04
2022-12-17T19:21:59.661Z,-6.07
2022-12-17T19:24:04.501Z,-6.09
2022-12-17T19:26:11.950Z,-6.11
2022-12-17T19:28:13.406Z,-6.12
2022-12-17T19:30:14.957Z,-6.16
2022-12-17T19:32:16.415Z,-6.18
2022-12-17T19:34:19.063Z,-6.19
2022-12-17T19:36:26.655Z,-6.23
2022-12-17T19:38:29.679Z,-6.26
2022-12-17T19:40:31.142Z,-6.27
2022-12-17T19:42:37.383Z,-6.29
2022-12-17T19:44:39.307Z,-6.32
2022-12-17T19:46:41.705Z,-6.34
2022-12-17T19:48:48.485Z,-6.36
2022-12-17T19:51:00.188Z,-6.40
2022-12-17T19:53:01.620Z,-6.42
2022-12-17T19:55:03.356Z,-6.44
2022-12-17T19:57:04.980Z,-6.48
2022-12-17T19:59:07.855Z,-6.51
2022-12-17T20:01:18.172Z,-6.55
2022-12-17T20:03:19.771Z,-6.57
2022-12-17T20:05:21.443Z,-6.61
2022-12-17T20:07:22.923Z,-6.66
2022-12-17T20:09:24.441Z,-6.69
2022-12-17T20:11:36.155Z,-6.72
2022-12-17T20:13:37.755Z,-6.74
2022-12-17T20:15:39.214Z,-6.76
2022-12-17T20:17:40.645Z,-6.78
2022-12-17T20:19:43.545Z,-6.80
2022-12-17T20:21:45.645Z,-6.81
2022-12-17T20:23:48.586Z,-6.82
2022-12-17T20:25:50.034Z,-6.84
2022-12-17T20:27:51.510Z,-6.85
2022-12-17T20:29:53.193Z,-6.88
2022-12-17T20:31:55.893Z,-6.90
2022-12-17T20:33:58.704Z,-6.93
2022-12-17T20:36:09.005Z,-6.94
2022-12-17T20:38:10.434Z,-6.96
2022-12-17T20:40:12.223Z,-6.97
2022-12-17T20:42:13.666Z,-6.99
2022-12-17T20:44:15.503Z,-7.00
2022-12-17T20:46:19.342Z,-7.03
2022-12-17T20:48:22.200Z,-7.04
2022-12-17T20:50:23.670Z,-7.07
2022-12-17T20:52:25.506Z,-7.10
2022-12-17T20:54:27.069Z,-7.13
2022-12-17T20:56:31.657Z,-7.16
2022-12-17T20:58:33.398Z,-7.18
2022-12-17T21:00:34.981Z,-7.20
2022-12-17T21:02:36.827Z,-7.23
2022-12-17T21:04:38.397Z,-7.26
2022-12-17T21:06:44.877Z,-7.26
2022-12-17T21:08:50.909Z,-7.31
2022-12-17T21:10:56.467Z,-7.32
2022-12-17T21:13:16.623Z,-7.34
2022-12-17T21:15:18.693Z,-7.34
2022-12-17T21:17:20.196Z,-7.34
2022-12-17T21:19:21.747Z,-7.36
2022-12-17T21:21:26.608Z,-7.39
2022-12-17T21:23:29.462Z,-7.42
2022-12-17T21:25:30.996Z,-7.43
2022-12-17T21:27:33.457Z,-7.45
2022-12-17T21:29:34.901Z,-7.46
2022-12-17T21:31:41.808Z,-7.49
2022-12-17T21:33:43.616Z,-7.52
2022-12-17T21:35:45.411Z,-7.54
2022-12-17T21:37:46.892Z,-7.59
2022-12-17T21:39:49.105Z,-7.60
2022-12-17T21:42:09.374Z,-7.60
2022-12-17T21:44:13.074Z,-7.61
2022-12-17T21:46:15.594Z,-7.61
2022-12-17T21:48:17.122Z,-7.62
2022-12-17T21:50:18.748Z,-7.62
2022-12-17T21:52:20.411Z,-7.64
2022-12-17T21:54:21.869Z,-7.63
2022-12-17T21:56:23.827Z,-7.62
2022-12-17T21:58:25.587Z,-7.64
2022-12-17T22:00:27.149Z,-7.66
2022-12-17T22:02:29.043Z,-7.63
2022-12-17T22:04:30.657Z,-7.64
2022-12-17T22:06:42.024Z,-7.64
2022-12-17T22:08:47.691Z,-7.64
2022-12-17T22:10:49.691Z,-7.65
2022-12-17T22:13:10.234Z,-7.65
2022-12-17T22:15:12.116Z,-7.68
2022-12-17T22:17:14.673Z,-7.67
2022-12-17T22:19:22.328Z,-7.67
2022-12-17T22:21:24.306Z,-7.67
2022-12-17T22:23:26.007Z,-7.70
2022-12-17T22:25:27.846Z,-7.72
2022-12-17T22:27:30.332Z,-7.76
2022-12-17T22:29:50.203Z,-7.77
2022-12-17T22:32:09.904Z,-7.78
2022-12-17T22:34:34.907Z,-7.81
2022-12-17T22:38:30.683Z,-7.84
2022-12-17T22:44:28.445Z,-7.87
2022-12-17T22:44:36.892Z,-7.90
2022-12-17T22:44:43.223Z,-7.92
2022-12-17T22:46:25.466Z,-7.94
2022-12-17T22:48:27.405Z,-7.93
2022-12-17T22:50:37.473Z,-7.94
2022-12-17T22:52:51.144Z,-7.94
2022-12-17T22:54:52.975Z,-7.94
2022-12-17T22:57:24.181Z,-7.98
2022-12-17T22:59:18.585Z,-8.01
2022-12-17T23:01:23.218Z,-8.03
2022-12-17T23:03:25.093Z,-8.04
2022-12-17T23:05:28.212Z,-8.04
2022-12-17T23:07:31.977Z,-8.04
2022-12-17T23:09:33.695Z,-8.04
2022-12-17T23:11:35.202Z,-8.04
2022-12-17T23:13:37.512Z,-8.04
2022-12-17T23:15:39.359Z,-8.04
2022-12-17T23:17:42.070Z,-8.04
2022-12-17T23:19:43.558Z,-8.01
2022-12-17T23:21:45.016Z,-8.00
2022-12-17T23:23:46.786Z,-8.00
2022-12-17T23:25:48.262Z,-8.00
2022-12-17T23:27:50.573Z,-7.98
2022-12-17T23:29:52.074Z,-7.98
2022-12-17T23:31:53.494Z,-7.97
2022-12-17T23:33:55.262Z,-7.97
2022-12-17T23:36:09.274Z,-7.97
2022-12-17T23:38:10.714Z,-7.97
2022-12-17T23:40:13.325Z,-7.99
2022-12-17T23:42:14.794Z,-8.01
2022-12-17T23:44:16.232Z,-8.03
2022-12-17T23:46:19.232Z,-8.05
2022-12-17T23:48:20.963Z,-8.06
2022-12-17T23:50:22.429Z,-8.07
2022-12-17T23:52:23.869Z,-8.09
2022-12-17T23:54:25.409Z,-8.11
2022-12-17T23:56:28.193Z,-8.12
2022-12-17T23:58:29.605Z,-8.12
